createdAt,value
2022-11-25T00:01:33.289Z,3.53
2022-11-25T00:04:02.483Z,3.90
2022-11-25T00:06:33.921Z,3.90
2022-11-25T00:09:04.654Z,3.87
2022-11-25T00:11:33.057Z,3.67
2022-11-25T00:14:01.542Z,4.30
2022-11-25T00:16:29.854Z,4.20
2022-11-25T00:18:59.537Z,3.90
2022-11-25T00:21:29.285Z,4.20
2022-11-25T00:24:00.280Z,4.10
2022-11-25T00:26:30.213Z,4.57
2022-11-25T00:29:00.941Z,4.90
2022-11-25T00:31:31.090Z,4.70
2022-11-25T00:34:00.141Z,4.50
2022-11-25T00:36:30.416Z,4.50
2022-11-25T00:39:02.093Z,4.03
2022-11-25T00:41:48.469Z,4.07
2022-11-25T00:44:37.781Z,4.17
2022-11-25T00:47:08.429Z,3.97
2022-11-25T00:49:37.125Z,4.57
2022-11-25T00:52:06.767Z,4.90
2022-11-25T00:54:36.732Z,4.87
2022-11-25T00:57:05.406Z,4.50
2022-11-25T00:59:33.816Z,3.43
2022-11-25T01:02:02.166Z,3.40
2022-11-25T01:04:30.645Z,3.30
2022-11-25T01:07:00.211Z,3.43
2022-11-25T01:09:29.528Z,3.57
2022-11-25T01:11:59.392Z,3.30
2022-11-25T01:14:27.917Z,3.20
2022-11-25T01:16:56.415Z,3.10
2022-11-25T01:19:26.566Z,3.20
2022-11-25T01:21:54.925Z,3.40
2022-11-25T01:24:24.201Z,3.57
2022-11-25T01:26:52.693Z,3.80
2022-11-25T01:29:22.493Z,3.57
2022-11-25T01:31:51.157Z,3.23
2022-11-25T01:34:21.936Z,3.47
2022-11-25T01:36:50.609Z,3.03
2022-11-25T01:39:20.956Z,3.10
2022-11-25T01:41:50.062Z,3.13
2022-11-25T01:44:20.664Z,3.50
2022-11-25T01:46:55.162Z,3.83
2022-11-25T01:49:30.265Z,4.20
2022-11-25T01:52:04.101Z,4.37
2022-11-25T01:54:40.786Z,4.73
2022-11-25T01:57:14.895Z,4.33
2022-11-25T01:59:48.974Z,5.00
2022-11-25T02:02:20.399Z,5.10
2022-11-25T02:04:50.420Z,5.53
2022-11-25T02:07:25.868Z,5.40
2022-11-25T02:09:55.312Z,5.47
2022-11-25T02:12:24.354Z,6.07
2022-11-25T02:14:55.341Z,6.27
2022-11-25T02:17:25.289Z,6.10
2022-11-25T02:20:01.335Z,5.90
2022-11-25T02:22:46.280Z,5.90
2022-11-25T02:25:23.608Z,6.00
2022-11-25T02:27:55.668Z,6.80
2022-11-25T02:30:25.053Z,6.20
2022-11-25T02:32:53.666Z,7.00
2022-11-25T02:35:29.358Z,7.23
2022-11-25T02:38:01.200Z,7.23
2022-11-25T02:40:31.465Z,7.60
2022-11-25T02:43:01.818Z,7.13
2022-11-25T02:45:50.429Z,7.43
2022-11-25T02:48:18.956Z,7.53
2022-11-25T02:50:47.380Z,7.23
2022-11-25T02:53:15.832Z,6.53
2022-11-25T02:55:45.733Z,6.70
2022-11-25T02:58:14.873Z,6.63
2022-11-25T03:00:44.033Z,6.90
2022-11-25T03:03:12.781Z,6.80
2022-11-25T03:05:41.485Z,6.93
2022-11-25T03:08:10.852Z,7.30
2022-11-25T03:10:39.878Z,7.63
2022-11-25T03:13:10.957Z,7.10
2022-11-25T03:15:39.603Z,7.13
2022-11-25T03:18:09.025Z,8.10
2022-11-25T03:20:38.079Z,7.13
2022-11-25T03:23:07.311Z,7.23
2022-11-25T03:25:37.043Z,7.80
2022-11-25T03:28:05.987Z,6.90
2022-11-25T03:30:36.098Z,7.07
2022-11-25T03:33:04.660Z,7.03
2022-11-25T03:35:33.041Z,7.60
2022-11-25T03:38:01.364Z,7.37
2022-11-25T03:40:29.746Z,8.07
2022-11-25T03:42:58.147Z,8.37
2022-11-25T03:45:26.572Z,7.73
2022-11-25T03:47:56.383Z,8.53
2022-11-25T03:50:24.828Z,8.20
2022-11-25T03:52:53.147Z,9.67
2022-11-25T03:55:21.786Z,9.53
2022-11-25T03:57:50.175Z,9.90
2022-11-25T04:00:19.126Z,9.23
2022-11-25T04:02:47.603Z,12.00
2022-11-25T04:05:17.735Z,11.23
2022-11-25T04:07:46.215Z,11.87
2022-11-25T04:10:14.771Z,11.33
2022-11-25T04:12:49.342Z,11.67
2022-11-25T04:15:18.822Z,10.93
2022-11-25T04:17:47.185Z,13.13
2022-11-25T04:20:17.428Z,13.07
2022-11-25T04:22:45.870Z,13.13
2022-11-25T04:25:14.691Z,12.60
2022-11-25T04:27:43.113Z,12.43
2022-11-25T04:30:12.222Z,12.47
2022-11-25T04:32:40.690Z,12.67
2022-11-25T04:35:09.781Z,11.37
2022-11-25T04:37:39.622Z,11.33
2022-11-25T04:40:09.093Z,11.87
2022-11-25T04:42:39.772Z,11.83
2022-11-25T04:45:22.859Z,11.50
2022-11-25T04:47:51.868Z,12.27
2022-11-25T04:50:23.344Z,11.60
2022-11-25T04:52:53.227Z,12.07
2022-11-25T04:55:21.644Z,11.90
2022-11-25T04:57:50.093Z,11.77
2022-11-25T05:00:18.871Z,11.83
2022-11-25T05:02:47.331Z,12.23
2022-11-25T05:05:16.507Z,12.23
2022-11-25T05:07:45.180Z,17.10
2022-11-25T05:10:15.399Z,37.00
2022-11-25T05:12:44.037Z,26.73
2022-11-25T05:15:13.055Z,20.10
2022-11-25T05:17:41.987Z,16.33
2022-11-25T05:20:11.680Z,15.70
2022-11-25T05:22:40.470Z,14.93
2022-11-25T05:25:10.870Z,14.60
2022-11-25T05:27:40.678Z,13.47
2022-11-25T05:30:10.369Z,13.30
2022-11-25T05:32:40.617Z,13.30
2022-11-25T05:35:09.978Z,12.83
2022-11-25T05:37:38.431Z,12.90
2022-11-25T05:40:08.300Z,11.80
2022-11-25T05:42:36.666Z,11.50
2022-11-25T05:45:07.855Z,11.43
2022-11-25T05:47:36.235Z,11.57
2022-11-25T05:50:05.246Z,11.30
2022-11-25T05:52:34.231Z,11.20
2022-11-25T05:55:02.626Z,10.70
2022-11-25T05:57:31.021Z,10.90
2022-11-25T05:59:59.421Z,11.37
2022-11-25T06:02:29.380Z,12.03
2022-11-25T06:04:57.906Z,11.67
2022-11-25T06:07:26.437Z,10.50
2022-11-25T06:09:57.660Z,10.57
2022-11-25T06:12:30.278Z,10.60
2022-11-25T06:14:58.646Z,10.13
2022-11-25T06:17:28.558Z,11.07
2022-11-25T06:19:57.059Z,10.03
2022-11-25T06:22:25.463Z,10.47
2022-11-25T06:25:00.360Z,10.53
2022-11-25T06:27:50.060Z,10.63
2022-11-25T06:30:21.038Z,9.97
2022-11-25T06:32:50.817Z,10.93
2022-11-25T06:35:19.466Z,11.63
2022-11-25T06:37:47.888Z,12.13
2022-11-25T06:40:16.576Z,11.83
2022-11-25T06:42:45.083Z,11.03
2022-11-25T06:45:13.458Z,10.03
2022-11-25T06:47:41.982Z,11.10
2022-11-25T06:50:12.573Z,12.10
2022-11-25T06:52:43.473Z,10.83
2022-11-25T06:55:12.128Z,9.23
2022-11-25T06:57:40.748Z,8.63
2022-11-25T07:00:10.230Z,7.50
2022-11-25T07:02:43.971Z,6.73
2022-11-25T07:05:14.055Z,7.07
2022-11-25T07:07:42.561Z,6.97
2022-11-25T07:10:11.531Z,7.97
2022-11-25T07:12:39.958Z,8.67
2022-11-25T07:15:08.908Z,8.47
2022-11-25T07:17:37.319Z,9.63
2022-11-25T07:20:06.833Z,9.00
2022-11-25T07:22:36.600Z,10.87
2022-11-25T07:25:05.390Z,11.27
2022-11-25T07:27:34.794Z,11.40
2022-11-25T07:30:41.597Z,11.13
2022-11-25T07:32:51.895Z,11.20
2022-11-25T07:35:20.509Z,13.17
2022-11-25T07:37:50.795Z,11.23
2022-11-25T07:40:19.580Z,12.40
2022-11-25T07:42:48.025Z,13.83
2022-11-25T07:45:16.915Z,17.23
2022-11-25T07:47:45.319Z,19.93
2022-11-25T07:50:13.907Z,19.63
2022-11-25T07:52:42.321Z,13.40
2022-11-25T07:55:12.370Z,10.30
2022-11-25T07:57:40.733Z,9.10
2022-11-25T08:00:10.383Z,8.30
2022-11-25T08:02:38.843Z,9.60
2022-11-25T08:05:08.561Z,10.17
2022-11-25T08:07:37.133Z,11.27
2022-11-25T08:10:06.532Z,11.70
2022-11-25T08:12:36.385Z,12.57
2022-11-25T08:15:05.338Z,11.70
2022-11-25T08:17:34.417Z,13.93
2022-11-25T08:20:02.853Z,12.97
2022-11-25T08:22:31.209Z,13.23
2022-11-25T08:24:59.555Z,12.43
2022-11-25T08:27:27.914Z,11.23
2022-11-25T08:29:57.694Z,10.83
2022-11-25T08:32:26.075Z,10.33
2022-11-25T08:34:54.491Z,10.50
2022-11-25T08:37:23.142Z,10.60
2022-11-25T08:39:53.306Z,10.93
2022-11-25T08:42:22.029Z,10.70
2022-11-25T08:44:55.558Z,10.70
2022-11-25T08:47:25.589Z,10.23
2022-11-25T08:49:54.407Z,10.50
2022-11-25T08:52:23.353Z,10.43
2022-11-25T08:54:52.203Z,10.23
2022-11-25T08:57:20.599Z,11.60
2022-11-25T08:59:49.168Z,11.47
2022-11-25T09:02:18.788Z,11.30
2022-11-25T09:04:48.738Z,11.93
2022-11-25T09:07:17.335Z,11.80
2022-11-25T09:09:46.295Z,11.23
2022-11-25T09:12:14.994Z,11.67
2022-11-25T09:14:43.433Z,12.13
2022-11-25T09:17:12.520Z,12.27
2022-11-25T09:19:41.337Z,13.97
2022-11-25T09:22:11.161Z,13.93
2022-11-25T09:24:39.653Z,14.00
2022-11-25T09:27:08.146Z,12.80
2022-11-25T09:29:36.935Z,12.43
2022-11-25T09:32:06.146Z,11.60
2022-11-25T09:34:34.676Z,11.80
2022-11-25T09:37:03.299Z,13.00
2022-11-25T09:39:35.737Z,12.57
2022-11-25T09:42:41.366Z,11.50
2022-11-25T09:45:35.600Z,11.43
2022-11-25T09:48:17.207Z,12.20
2022-11-25T09:50:55.266Z,11.57
2022-11-25T09:53:36.367Z,11.90
2022-11-25T09:56:12.747Z,12.23
2022-11-25T09:58:48.515Z,12.57
2022-11-25T10:01:22.406Z,13.13
2022-11-25T10:03:54.898Z,12.03
2022-11-25T10:06:26.230Z,12.27
2022-11-25T10:08:58.687Z,12.27
2022-11-25T10:11:39.887Z,12.33
2022-11-25T10:14:14.111Z,13.03
2022-11-25T10:16:51.624Z,13.13
2022-11-25T10:19:34.501Z,14.10
2022-11-25T10:22:14.598Z,13.53
2022-11-25T10:24:43.568Z,12.23
2022-11-25T10:27:20.847Z,12.40
2022-11-25T10:29:58.235Z,11.97
2022-11-25T10:32:29.323Z,31.70
2022-11-25T10:34:57.100Z,27.00
2022-11-25T10:37:30.403Z,20.83
2022-11-25T10:39:59.132Z,18.17
2022-11-25T10:42:29.915Z,16.10
2022-11-25T10:44:58.232Z,16.23
2022-11-25T10:47:40.366Z,16.40
2022-11-25T10:50:17.144Z,18.90
2022-11-25T10:52:52.836Z,22.27
2022-11-25T10:55:25.848Z,26.00
2022-11-25T10:57:56.675Z,24.37
2022-11-25T11:00:32.638Z,18.83
2022-11-25T11:03:14.959Z,15.80
2022-11-25T11:05:48.859Z,15.10
2022-11-25T11:08:23.040Z,14.97
2022-11-25T11:11:17.083Z,16.67
2022-11-25T11:13:47.805Z,20.67
2022-11-25T11:16:33.055Z,21.17
2022-11-25T11:19:01.447Z,19.43
2022-11-25T11:21:34.617Z,18.67
2022-11-25T11:24:03.895Z,16.50
2022-11-25T11:26:34.342Z,21.10
2022-11-25T11:29:11.131Z,66.83
2022-11-25T11:31:47.379Z,55.60
2022-11-25T11:34:35.011Z,49.33
2022-11-25T11:37:23.913Z,43.17
2022-11-25T11:40:04.136Z,30.63
2022-11-25T11:42:42.922Z,22.70
2022-11-25T11:45:30.261Z,21.13
2022-11-25T11:48:12.456Z,24.60
2022-11-25T11:50:46.779Z,19.80
2022-11-25T11:53:23.980Z,16.53
2022-11-25T11:56:33.492Z,13.33
2022-11-25T11:59:06.853Z,12.93
2022-11-25T12:01:47.681Z,11.57
2022-11-25T12:04:22.296Z,11.13
2022-11-25T12:07:01.617Z,11.73
2022-11-25T12:09:32.084Z,19.43
2022-11-25T12:12:05.888Z,25.43
2022-11-25T12:14:40.551Z,24.80
2022-11-25T12:17:18.497Z,24.00
2022-11-25T12:19:54.950Z,24.40
2022-11-25T12:22:27.974Z,24.83
2022-11-25T12:25:05.865Z,28.83
2022-11-25T12:27:38.831Z,20.97
2022-11-25T12:30:09.533Z,18.13
2022-11-25T12:33:00.046Z,16.70
2022-11-25T12:35:39.842Z,17.40
2022-11-25T12:38:21.075Z,18.30
2022-11-25T12:40:56.521Z,20.43
2022-11-25T12:43:33.557Z,18.23
2022-11-25T12:46:13.067Z,17.40
2022-11-25T12:48:44.446Z,21.30
2022-11-25T12:51:25.580Z,22.03
2022-11-25T12:54:08.222Z,20.70
2022-11-25T12:56:50.945Z,19.57
2022-11-25T13:00:06.001Z,19.63
2022-11-25T13:03:14.293Z,20.37
2022-11-25T13:06:07.702Z,30.03
2022-11-25T13:08:54.339Z,29.27
2022-11-25T13:11:47.179Z,26.13
2022-11-25T13:14:25.080Z,22.33
2022-11-25T13:16:56.142Z,20.77
2022-11-25T13:19:25.197Z,18.90
2022-11-25T13:22:01.145Z,19.87
2022-11-25T13:24:34.956Z,18.03
2022-11-25T13:27:05.308Z,17.40
2022-11-25T13:30:04.380Z,16.87
2022-11-25T13:32:50.399Z,15.00
2022-11-25T13:35:48.007Z,15.90
2022-11-25T13:39:04.420Z,16.20
2022-11-25T13:41:41.939Z,16.47
2022-11-25T13:44:29.738Z,15.73
2022-11-25T13:47:01.769Z,15.87
2022-11-25T13:49:44.657Z,16.97
2022-11-25T13:52:35.149Z,17.67
2022-11-25T13:55:11.358Z,18.30
2022-11-25T13:57:44.678Z,21.63
2022-11-25T14:00:49.081Z,19.73
2022-11-25T14:03:48.717Z,17.83
2022-11-25T14:07:01.554Z,17.50
2022-11-25T14:09:43.757Z,16.17
2022-11-25T14:12:39.277Z,16.90
2022-11-25T14:15:27.376Z,18.57
2022-11-25T14:18:53.191Z,22.10
2022-11-25T14:21:27.604Z,25.20
2022-11-25T14:24:12.674Z,27.60
2022-11-25T14:26:49.691Z,30.27
2022-11-25T14:29:23.257Z,30.20
2022-11-25T14:31:57.304Z,26.67
2022-11-25T14:34:31.411Z,25.80
2022-11-25T14:37:09.392Z,23.40
2022-11-25T14:39:43.352Z,23.77
2022-11-25T14:42:16.852Z,24.77
2022-11-25T14:44:50.657Z,24.43
2022-11-25T14:47:24.741Z,23.30
2022-11-25T14:50:18.801Z,21.40
2022-11-25T14:52:46.072Z,19.90
2022-11-25T14:55:15.439Z,14.53
2022-11-25T14:57:46.423Z,13.07
2022-11-25T15:00:18.457Z,12.23
2022-11-25T15:02:55.993Z,9.43
2022-11-25T15:05:27.147Z,16.60
2022-11-25T15:07:59.826Z,16.07
2022-11-25T15:10:39.264Z,16.20
2022-11-25T15:13:14.791Z,17.83
2022-11-25T15:15:48.228Z,16.90
2022-11-25T15:18:22.715Z,16.80
2022-11-25T15:20:57.553Z,17.30
2022-11-25T15:23:31.872Z,17.03
2022-11-25T15:26:01.322Z,16.50
2022-11-25T15:28:35.901Z,17.47
2022-11-25T15:31:12.751Z,16.83
2022-11-25T15:33:42.829Z,16.60
2022-11-25T15:36:11.711Z,16.27
2022-11-25T15:38:42.794Z,16.83
2022-11-25T15:41:22.062Z,17.10
2022-11-25T15:43:52.352Z,19.33
2022-11-25T15:46:23.306Z,25.23
2022-11-25T15:48:53.741Z,28.43
2022-11-25T15:51:34.610Z,26.87
2022-11-25T15:54:07.640Z,22.60
2022-11-25T15:56:41.290Z,20.77
2022-11-25T15:59:42.694Z,30.67
2022-11-25T16:02:33.838Z,36.30
2022-11-25T16:05:19.068Z,37.00
2022-11-25T16:08:03.913Z,33.43
2022-11-25T16:10:34.471Z,30.07
2022-11-25T16:13:29.133Z,27.27
2022-11-25T16:16:01.918Z,28.73
2022-11-25T16:18:40.602Z,27.93
2022-11-25T16:21:11.648Z,30.67
2022-11-25T16:23:44.279Z,29.70
2022-11-25T16:26:18.525Z,22.00
2022-11-25T16:28:54.117Z,12.40
2022-11-25T16:31:23.134Z,8.27
2022-11-25T16:33:55.300Z,5.70
2022-11-25T16:36:23.669Z,5.30
2022-11-25T16:38:54.517Z,5.87
2022-11-25T16:41:25.745Z,7.07
2022-11-25T16:43:58.387Z,8.87
2022-11-25T16:46:28.802Z,25.17
2022-11-25T16:48:58.460Z,25.43
2022-11-25T16:51:26.877Z,19.83
2022-11-25T16:53:55.250Z,19.67
2022-11-25T16:56:27.523Z,21.33
2022-11-25T16:58:56.096Z,24.57
2022-11-25T17:01:26.946Z,21.37
2022-11-25T17:03:55.359Z,18.60
2022-11-25T17:06:26.528Z,15.87
2022-11-25T17:08:54.898Z,23.87
2022-11-25T17:11:29.434Z,26.30
2022-11-25T17:13:59.684Z,20.63
2022-11-25T17:16:29.917Z,7.53
2022-11-25T17:19:00.107Z,10.87
2022-11-25T17:21:30.638Z,14.80
2022-11-25T17:24:02.766Z,15.20
2022-11-25T17:26:37.558Z,15.53
2022-11-25T17:29:09.049Z,15.67
2022-11-25T17:31:39.593Z,16.27
2022-11-25T17:34:07.906Z,14.87
2022-11-25T17:36:37.647Z,16.13
2022-11-25T17:39:05.883Z,42.50
2022-11-25T17:41:39.795Z,49.23
2022-11-25T17:44:17.588Z,47.07
2022-11-25T17:46:45.877Z,37.77
2022-11-25T17:49:16.335Z,27.77
2022-11-25T17:51:46.042Z,20.97
2022-11-25T17:54:14.693Z,22.27
2022-11-25T17:56:47.797Z,27.20
2022-11-25T17:59:24.946Z,34.87
2022-11-25T18:01:53.295Z,36.60
2022-11-25T18:04:24.406Z,31.40
2022-11-25T18:06:54.692Z,25.60
2022-11-25T18:09:23.327Z,20.33
2022-11-25T18:11:54.979Z,14.80
2022-11-25T18:14:28.389Z,10.33
2022-11-25T18:16:57.316Z,9.97
2022-11-25T18:19:25.850Z,11.83
2022-11-25T18:22:00.129Z,16.63
2022-11-25T18:24:28.496Z,19.00
2022-11-25T18:26:57.828Z,20.23
2022-11-25T18:29:28.216Z,22.50
2022-11-25T18:31:59.461Z,21.17
2022-11-25T18:34:27.958Z,18.57
2022-11-25T18:36:57.608Z,15.60
2022-11-25T18:39:25.948Z,9.60
2022-11-25T18:41:58.226Z,7.40
2022-11-25T18:44:28.044Z,6.30
2022-11-25T18:46:56.456Z,8.23
2022-11-25T18:49:24.959Z,10.77
2022-11-25T18:51:53.181Z,13.83
2022-11-25T18:54:22.896Z,14.23
2022-11-25T18:56:52.955Z,14.23
2022-11-25T18:59:27.784Z,13.70
2022-11-25T19:01:56.476Z,13.00
2022-11-25T19:04:24.943Z,14.53
2022-11-25T19:06:53.364Z,13.90
2022-11-25T19:09:23.008Z,10.47
2022-11-25T19:11:54.952Z,12.07
2022-11-25T19:14:30.326Z,10.00
2022-11-25T19:17:02.330Z,9.57
2022-11-25T19:19:30.953Z,9.73
2022-11-25T19:22:01.543Z,9.80
2022-11-25T19:24:31.368Z,10.47
2022-11-25T19:26:59.981Z,10.43
2022-11-25T19:29:37.511Z,10.30
2022-11-25T19:32:18.476Z,12.27
2022-11-25T19:34:49.204Z,12.50
2022-11-25T19:37:21.931Z,10.67
2022-11-25T19:39:54.497Z,11.10
2022-11-25T19:42:24.809Z,9.67
2022-11-25T19:44:53.798Z,10.13
2022-11-25T19:47:24.881Z,9.90
2022-11-25T19:49:55.869Z,8.47
2022-11-25T19:52:27.002Z,7.63
2022-11-25T19:54:57.424Z,7.37
2022-11-25T19:57:26.470Z,9.03
2022-11-25T19:59:54.769Z,10.37
2022-11-25T20:02:26.273Z,10.33
2022-11-25T20:04:58.301Z,9.03
2022-11-25T20:07:30.100Z,8.90
2022-11-25T20:10:04.848Z,9.57
2022-11-25T20:12:34.220Z,8.00
2022-11-25T20:15:04.944Z,5.87
2022-11-25T20:17:38.959Z,5.13
2022-11-25T20:20:14.982Z,5.30
2022-11-25T20:22:47.844Z,6.90
2022-11-25T20:25:17.998Z,11.87
2022-11-25T20:27:47.587Z,21.10
2022-11-25T20:30:19.412Z,24.90
2022-11-25T20:32:48.656Z,22.90
2022-11-25T20:35:17.913Z,27.20
2022-11-25T20:37:54.846Z,22.23
2022-11-25T20:40:29.159Z,15.30
2022-11-25T20:42:59.783Z,9.50
2022-11-25T20:45:29.104Z,6.00
2022-11-25T20:47:59.746Z,3.77
2022-11-25T20:50:31.569Z,4.90
2022-11-25T20:53:00.746Z,6.20
2022-11-25T20:55:30.763Z,9.20
2022-11-25T20:57:59.043Z,8.80
2022-11-25T21:00:29.622Z,7.27
2022-11-25T21:02:58.587Z,6.40
2022-11-25T21:05:28.790Z,6.60
2022-11-25T21:07:57.155Z,5.97
2022-11-25T21:10:29.094Z,6.30
2022-11-25T21:12:59.779Z,6.27
2022-11-25T21:15:29.585Z,5.50
2022-11-25T21:17:59.776Z,7.60
2022-11-25T21:20:29.095Z,10.00
2022-11-25T21:23:00.684Z,8.90
2022-11-25T21:25:29.292Z,12.83
2022-11-25T21:27:59.944Z,10.77
2022-11-25T21:30:32.448Z,8.00
2022-11-25T21:33:03.067Z,7.43
2022-11-25T21:35:35.133Z,7.13
2022-11-25T21:38:06.890Z,6.17
2022-11-25T21:40:38.736Z,4.70
2022-11-25T21:43:19.876Z,3.50
2022-11-25T21:45:52.281Z,4.07
2022-11-25T21:48:23.779Z,6.67
2022-11-25T21:50:55.246Z,8.30
2022-11-25T21:53:23.761Z,7.90
2022-11-25T21:55:52.883Z,5.83
2022-11-25T21:58:26.431Z,5.60
2022-11-25T22:00:56.542Z,7.37
2022-11-25T22:03:26.116Z,9.77
2022-11-25T22:05:54.571Z,10.23
2022-11-25T22:08:23.982Z,11.70
2022-11-25T22:10:55.270Z,10.00
2022-11-25T22:13:31.113Z,8.20
2022-11-25T22:16:00.360Z,9.00
2022-11-25T22:18:30.671Z,7.70
2022-11-25T22:20:59.421Z,6.53
2022-11-25T22:23:28.547Z,7.57
2022-11-25T22:25:57.595Z,8.90
2022-11-25T22:28:29.981Z,8.67
2022-11-25T22:31:01.613Z,9.23
2022-11-25T22:33:32.488Z,8.30
2022-11-25T22:36:01.339Z,5.90
2022-11-25T22:38:30.702Z,4.57
2022-11-25T22:41:02.401Z,4.10
2022-11-25T22:43:35.781Z,4.60
2022-11-25T22:46:05.617Z,5.30
2022-11-25T22:48:36.562Z,4.83
2022-11-25T22:51:05.115Z,5.30
2022-11-25T22:53:34.150Z,5.13
2022-11-25T22:56:02.635Z,4.60
2022-11-25T22:58:32.324Z,4.57
2022-11-25T23:01:00.596Z,4.17
2022-11-25T23:03:30.861Z,4.00
2022-11-25T23:05:59.167Z,3.13
2022-11-25T23:08:31.754Z,2.60
2022-11-25T23:11:00.738Z,2.70
2022-11-25T23:13:29.032Z,3.67
2022-11-25T23:16:00.911Z,4.27
2022-11-25T23:18:37.933Z,4.40
2022-11-25T23:21:07.872Z,3.17
2022-11-25T23:23:36.167Z,2.40
2022-11-25T23:26:04.553Z,2.07
2022-11-25T23:28:32.913Z,1.93
2022-11-25T23:31:03.025Z,1.60
2022-11-25T23:33:37.092Z,1.60
2022-11-25T23:36:09.355Z,1.67
2022-11-25T23:38:42.940Z,1.83
2022-11-25T23:41:16.593Z,1.90
2022-11-25T23:43:45.216Z,1.67
2022-11-25T23:46:17.361Z,1.60
2022-11-25T23:48:50.971Z,1.70
2022-11-25T23:51:19.473Z,1.80
2022-11-25T23:53:47.794Z,1.90
2022-11-25T23:56:16.393Z,1.63
2022-11-25T23:58:44.940Z,2.10
